Time;durP1;ratioP1;P1;durP2;ratioP2;P2;SDS_P1;SDS_P2;PMS_P1;PMS_P2;Temp;Humidity;BMP_temperature;BMP_pressure;BME280_temperature;BME280_humidity;BME280_pressure;Samples;Min_cycle;Max_cycle;Signal;HPM_P1;HPM_P2
2022/02/03 00:00:08;;;;;;;;;;;21.10;38.40;;;;;;701680;28;1046;-78
2022/02/03 00:01:01;;;;;;;;;;;21.20;38.70;;;;;;702302;28;577;-78
2022/02/03 00:01:28;;;;;;;;;;;21.10;38.60;;;;;;702188;28;849;-78
2022/02/03 00:02:34;;;;;;;;;;;21.20;38.60;;;;;;702234;28;920;-77
2022/02/03 00:03:13;;;;;;;;;;;21.20;38.50;;;;;;702148;28;912;-78
2022/02/03 00:03:50;;;;;;;;;;;21.20;38.60;;;;;;702327;28;919;-76
2022/02/03 00:04:15;;;;;;;;;;;21.20;38.60;;;;;;702315;28;873;-79
2022/02/03 00:04:45;;;;;;;;;;;21.20;38.50;;;;;;702294;28;810;-78
2022/02/03 00:05:17;;;;;;;;;;;21.20;38.50;;;;;;702255;28;884;-78
2022/02/03 00:06:10;;;;;;;;;;;21.20;38.60;;;;;;702185;28;826;-77
2022/02/03 00:06:47;;;;;;;;;;;21.20;38.50;;;;;;702214;28;814;-78
2022/02/03 00:07:13;;;;;;;;;;;21.20;38.70;;;;;;702260;28;881;-78
2022/02/03 00:07:56;;;;;;;;;;;21.20;38.70;;;;;;702202;28;1352;-78
2022/02/03 00:08:50;;;;;;;;;;;21.10;38.50;;;;;;702133;28;1071;-77
2022/02/03 00:11:42;;;;;;;;;;;21.10;38.80;;;;;;702174;28;704;-78
2022/02/03 00:22:01;;;;;;;;;;;21.10;38.90;;;;;;702883;28;589;-78
2022/02/03 00:22:43;;;;;;;;;;;21.10;38.90;;;;;;696964;28;616;-78
2022/02/03 00:24:28;;;;;;;;;;;21.10;38.90;;;;;;696858;28;684;-78
2022/02/03 00:25:30;;;;;;;;;;;21.10;38.90;;;;;;696971;28;845;-78
2022/02/03 00:25:56;;;;;;;;;;;21.10;38.90;;;;;;696768;28;893;-78
2022/02/03 00:26:18;;;;;;;;;;;21.10;39.00;;;;;;696824;28;834;-78
2022/02/03 00:26:43;;;;;;;;;;;21.10;39.00;;;;;;696916;28;1090;-78
2022/02/03 00:27:11;;;;;;;;;;;21.10;39.00;;;;;;696954;28;822;-78
2022/02/03 00:28:29;;;;;;;;;;;21.10;39.00;;;;;;696834;28;762;-78
2022/02/03 00:28:49;;;;;;;;;;;21.10;39.00;;;;;;696853;28;795;-78
2022/02/03 00:29:20;;;;;;;;;;;21.10;39.00;;;;;;696863;28;905;-78
2022/02/03 00:30:04;;;;;;;;;;;21.10;39.00;;;;;;696876;28;846;-78
2022/02/03 00:30:34;;;;;;;;;;;21.10;39.10;;;;;;696879;28;862;-78
2022/02/03 00:31:38;;;;;;;;;;;21.20;39.00;;;;;;696836;28;770;-78
2022/02/03 00:32:09;;;;;;;;;;;21.20;39.00;;;;;;696853;28;842;-78
2022/02/03 00:33:49;;;;;;;;;;;21.20;39.00;;;;;;696946;28;912;-78
2022/02/03 00:34:24;;;;;;;;;;;21.20;39.00;;;;;;696864;28;904;-78
2022/02/03 00:35:04;;;;;;;;;;;21.20;39.10;;;;;;696855;28;799;-78
2022/02/03 00:36:24;;;;;;;;;;;21.20;39.00;;;;;;696864;28;632;-78
2022/02/03 00:37:31;;;;;;;;;;;21.30;39.00;;;;;;696820;28;798;-79
2022/02/03 00:37:57;;;;;;;;;;;21.30;39.10;;;;;;694799;28;1019;-78
2022/02/03 00:38:43;;;;;;;;;;;21.30;39.00;;;;;;696559;28;1125;-78
2022/02/03 00:48:24;;;;;;;;;;;21.40;38.90;;;;;;696926;28;613;-78
2022/02/03 00:48:59;;;;;;;;;;;21.40;38.80;;;;;;696852;28;998;-77
2022/02/03 00:49:20;;;;;;;;;;;21.40;38.90;;;;;;696766;28;837;-77
2022/02/03 00:50:11;;;;;;;;;;;21.40;38.80;;;;;;696858;28;862;-77
2022/02/03 00:50:30;;;;;;;;;;;21.40;38.80;;;;;;696559;28;1034;-78
2022/02/03 00:50:52;;;;;;;;;;;21.40;38.90;;;;;;696868;28;897;-78
2022/02/03 00:51:12;;;;;;;;;;;21.40;38.80;;;;;;697043;28;807;-78
2022/02/03 00:51:34;;;;;;;;;;;21.40;38.80;;;;;;696929;28;853;-78
2022/02/03 00:51:59;;;;;;;;;;;21.40;38.80;;;;;;696843;28;833;-78
2022/02/03 00:52:19;;;;;;;;;;;21.40;38.80;;;;;;696769;28;975;-78
2022/02/03 00:52:40;;;;;;;;;;;21.40;38.80;;;;;;696782;28;1894;-78
2022/02/03 00:53:03;;;;;;;;;;;21.40;38.80;;;;;;696777;28;818;-78
2022/02/03 00:53:24;;;;;;;;;;;21.40;38.80;;;;;;696886;28;932;-78
2022/02/03 00:53:46;;;;;;;;;;;21.40;38.80;;;;;;696727;28;1337;-79
2022/02/03 00:54:10;;;;;;;;;;;21.40;38.80;;;;;;696814;28;825;-78
2022/02/03 00:54:32;;;;;;;;;;;21.40;38.70;;;;;;696762;28;858;-78
2022/02/03 00:54:52;;;;;;;;;;;21.40;38.70;;;;;;696617;28;1408;-78
2022/02/03 00:55:13;;;;;;;;;;;21.40;38.70;;;;;;696744;28;822;-79
2022/02/03 00:55:37;;;;;;;;;;;21.40;38.70;;;;;;696867;28;956;-78
2022/02/03 00:56:02;;;;;;;;;;;21.30;38.70;;;;;;696817;28;854;-78
2022/02/03 00:56:25;;;;;;;;;;;21.30;38.70;;;;;;696742;28;865;-79
2022/02/03 00:56:52;;;;;;;;;;;21.30;38.70;;;;;;693919;28;1392;-78
2022/02/03 00:57:21;;;;;;;;;;;21.30;38.70;;;;;;693975;28;825;-79
2022/02/03 00:57:48;;;;;;;;;;;21.30;38.70;;;;;;694041;28;964;-78
2022/02/03 00:58:10;;;;;;;;;;;21.30;38.70;;;;;;694092;28;878;-78
2022/02/03 00:58:32;;;;;;;;;;;21.30;38.80;;;;;;694350;28;1433;-78
2022/02/03 00:58:57;;;;;;;;;;;21.30;38.70;;;;;;700272;28;916;-79
2022/02/03 00:59:20;;;;;;;;;;;21.30;38.80;;;;;;702551;28;904;-78
2022/02/03 00:59:55;;;;;;;;;;;21.30;38.80;;;;;;702537;28;1176;-79
2022/02/03 01:00:17;;;;;;;;;;;21.30;38.80;;;;;;702429;28;833;-79
2022/02/03 01:00:38;;;;;;;;;;;21.30;38.90;;;;;;699641;28;1321;-79
2022/02/03 01:00:59;;;;;;;;;;;21.30;38.80;;;;;;699599;28;878;-78
2022/02/03 01:01:24;;;;;;;;;;;21.30;38.80;;;;;;699638;28;1423;-79
2022/02/03 01:01:46;;;;;;;;;;;21.30;38.90;;;;;;699815;28;838;-80
2022/02/03 01:02:08;;;;;;;;;;;21.90;39.30;;;;;;699679;28;822;-79
2022/02/03 01:02:29;;;;;;;;;;;21.30;38.90;;;;;;698204;28;956;-79
2022/02/03 01:02:51;;;;;;;;;;;21.20;38.80;;;;;;699661;28;1344;-79
2022/02/03 01:03:12;;;;;;;;;;;21.20;38.80;;;;;;699739;28;802;-79
2022/02/03 01:03:33;;;;;;;;;;;21.30;39.00;;;;;;699718;28;833;-77
2022/02/03 01:03:54;;;;;;;;;;;21.20;38.90;;;;;;699643;28;798;-79
2022/02/03 01:04:15;;;;;;;;;;;21.20;38.90;;;;;;700328;28;988;-78
2022/02/03 01:04:38;;;;;;;;;;;21.30;39.00;;;;;;702749;28;802;-79
2022/02/03 01:05:02;;;;;;;;;;;21.20;38.80;;;;;;702281;28;1481;-79
2022/02/03 01:05:23;;;;;;;;;;;21.20;38.90;;;;;;702378;28;873;-79
2022/02/03 01:05:47;;;;;;;;;;;21.20;38.80;;;;;;702314;28;973;-79
2022/02/03 01:06:11;;;;;;;;;;;21.20;40.00;;;;;;702506;28;853;-79
2022/02/03 01:06:33;;;;;;;;;;;21.20;38.90;;;;;;702374;28;822;-79
2022/02/03 01:06:56;;;;;;;;;;;21.20;38.90;;;;;;702501;28;904;-79
2022/02/03 01:07:19;;;;;;;;;;;21.20;38.90;;;;;;702538;28;877;-78
2022/02/03 01:07:43;;;;;;;;;;;21.20;39.00;;;;;;699586;28;1392;-79
2022/02/03 01:08:14;;;;;;;;;;;21.20;38.90;;;;;;699680;28;968;-79
2022/02/03 01:08:37;;;;;;;;;;;21.20;39.00;;;;;;699764;28;1443;-80
2022/02/03 01:08:58;;;;;;;;;;;21.20;38.90;;;;;;699498;28;1562;-79
2022/02/03 01:09:19;;;;;;;;;;;21.20;39.00;;;;;;699653;28;786;-80
2022/02/03 01:09:51;;;;;;;;;;;21.20;39.00;;;;;;699529;28;1394;-79
2022/02/03 01:10:18;;;;;;;;;;;21.20;39.00;;;;;;699728;28;864;-79
2022/02/03 01:10:44;;;;;;;;;;;21.20;40.10;;;;;;699666;28;889;-79
2022/02/03 01:11:14;;;;;;;;;;;21.20;39.10;;;;;;699671;28;869;-79
2022/02/03 01:11:40;;;;;;;;;;;21.10;39.00;;;;;;701599;28;1409;-78
2022/02/03 01:12:24;;;;;;;;;;;21.20;39.00;;;;;;702457;28;1236;-79
2022/02/03 01:13:31;;;;;;;;;;;21.20;39.10;;;;;;702525;28;1472;-78
2022/02/03 01:14:36;;;;;;;;;;;21.10;39.10;;;;;;702528;28;964;-78
2022/02/03 01:14:54;;;;;;;;;;;21.10;39.00;;;;;;699665;28;1018;-80
2022/02/03 01:16:09;;;;;;;;;;;21.10;39.10;;;;;;693945;28;1019;-79
2022/02/03 01:17:46;;;;;;;;;;;21.10;39.20;;;;;;693984;28;774;-80
2022/02/03 01:34:33;;;;;;;;;;;21.00;39.50;;;;;;694093;28;854;-80
2022/02/03 01:36:57;;;;;;;;;;;21.00;39.50;;;;;;694102;28;613;-80
2022/02/03 01:43:17;;;;;;;;;;;21.00;39.60;;;;;;693830;28;1316;-80
2022/02/03 01:43:46;;;;;;;;;;;21.00;39.60;;;;;;691240;28;691;-79
2022/02/03 01:44:20;;;;;;;;;;;21.00;39.70;;;;;;691313;28;803;-79
2022/02/03 01:45:03;;;;;;;;;;;21.00;39.70;;;;;;691213;28;1321;-80
2022/02/03 01:45:36;;;;;;;;;;;21.00;39.70;;;;;;691186;28;905;-78
2022/02/03 01:46:01;;;;;;;;;;;21.00;39.70;;;;;;691177;28;854;-80
2022/02/03 01:46:39;;;;;;;;;;;21.00;39.70;;;;;;691148;28;838;-79
2022/02/03 01:47:08;;;;;;;;;;;21.00;39.80;;;;;;691052;28;1380;-79
2022/02/03 01:48:08;;;;;;;;;;;21.00;39.70;;;;;;691161;28;833;-79
2022/02/03 01:49:17;;;;;;;;;;;20.90;39.70;;;;;;680352;29;1372;-79
2022/02/03 01:51:56;;;;;;;;;;;20.90;39.80;;;;;;680508;29;668;-80
2022/02/03 01:52:40;;;;;;;;;;;21.00;39.80;;;;;;680481;29;894;-80
2022/02/03 01:53:04;;;;;;;;;;;21.00;39.90;;;;;;680475;29;923;-79
2022/02/03 01:53:28;;;;;;;;;;;21.00;39.80;;;;;;680524;29;823;-80
2022/02/03 01:53:49;;;;;;;;;;;20.90;39.70;;;;;;680574;29;906;-79
2022/02/03 01:54:12;;;;;;;;;;;20.90;39.80;;;;;;685973;28;903;-80
2022/02/03 01:54:34;;;;;;;;;;;20.90;39.70;;;;;;691431;28;680;-79
2022/02/03 01:54:56;;;;;;;;;;;20.90;39.80;;;;;;691171;28;944;-80
2022/02/03 01:55:21;;;;;;;;;;;20.90;39.80;;;;;;691209;28;791;-78
2022/02/03 01:55:46;;;;;;;;;;;20.90;39.70;;;;;;691214;28;865;-78
2022/02/03 01:56:08;;;;;;;;;;;20.90;39.80;;;;;;691169;28;938;-77
2022/02/03 01:56:40;;;;;;;;;;;20.90;39.80;;;;;;691168;28;842;-77
2022/02/03 01:57:11;;;;;;;;;;;20.90;39.80;;;;;;691207;28;866;-76
2022/02/03 01:57:36;;;;;;;;;;;20.90;39.80;;;;;;691215;28;889;-78
2022/02/03 01:58:12;;;;;;;;;;;20.90;39.80;;;;;;691180;28;795;-77
2022/02/03 01:58:35;;;;;;;;;;;20.90;39.80;;;;;;691234;28;1514;-78
2022/02/03 01:58:58;;;;;;;;;;;20.90;39.80;;;;;;693887;28;925;-76
2022/02/03 01:59:23;;;;;;;;;;;20.90;39.80;;;;;;693882;28;818;-78
2022/02/03 01:59:45;;;;;;;;;;;20.90;39.80;;;;;;693880;28;830;-77
2022/02/03 02:00:08;;;;;;;;;;;20.90;39.80;;;;;;694080;28;886;-78
2022/02/03 02:00:35;;;;;;;;;;;20.90;39.80;;;;;;693752;28;955;-78
2022/02/03 02:01:01;;;;;;;;;;;20.90;39.80;;;;;;693823;28;846;-79
2022/02/03 02:01:22;;;;;;;;;;;21.00;39.80;;;;;;693887;28;1007;-78
2022/02/03 02:01:43;;;;;;;;;;;20.90;39.90;;;;;;693967;28;802;-79
2022/02/03 02:02:05;;;;;;;;;;;20.90;39.80;;;;;;691202;28;1434;-77
2022/02/03 02:02:30;;;;;;;;;;;20.90;39.80;;;;;;691044;28;851;-78
2022/02/03 02:03:06;;;;;;;;;;;20.90;39.80;;;;;;691139;28;906;-78
2022/02/03 02:03:37;;;;;;;;;;;20.90;39.80;;;;;;691074;28;1373;-78
2022/02/03 02:04:01;;;;;;;;;;;20.90;39.80;;;;;;692932;28;814;-77
2022/02/03 02:04:24;;;;;;;;;;;20.90;39.80;;;;;;693874;28;846;-78
2022/02/03 02:05:13;;;;;;;;;;;20.90;39.90;;;;;;693784;28;897;-78
2022/02/03 02:05:45;;;;;;;;;;;20.90;39.90;;;;;;688290;28;1250;-78
2022/02/03 02:06:11;;;;;;;;;;;20.90;39.90;;;;;;688436;28;918;-79
2022/02/03 02:06:39;;;;;;;;;;;20.90;39.90;;;;;;693730;28;902;-78
2022/02/03 02:07:06;;;;;;;;;;;20.90;39.90;;;;;;694053;28;893;-79
2022/02/03 02:07:52;;;;;;;;;;;20.90;39.90;;;;;;690997;28;878;-78
2022/02/03 02:08:31;;;;;;;;;;;20.90;39.90;;;;;;688289;28;1134;-77
2022/02/03 02:09:15;;;;;;;;;;;20.90;39.90;;;;;;685526;28;1552;-78
2022/02/03 02:10:03;;;;;;;;;;;20.90;39.90;;;;;;685908;28;1220;-79
2022/02/03 02:11:54;;;;;;;;;;;20.90;39.90;;;;;;688919;28;1713;-78
2022/02/03 02:12:34;;;;;;;;;;;20.90;40.00;;;;;;689145;28;1729;-78
2022/02/03 02:13:17;;;;;;;;;;;20.90;39.90;;;;;;685024;28;1987;-78
2022/02/03 02:14:14;;;;;;;;;;;20.90;39.90;;;;;;686073;28;923;-78
2022/02/03 02:16:47;;;;;;;;;;;20.90;40.00;;;;;;688584;28;653;-78
2022/02/03 02:18:35;;;;;;;;;;;20.90;39.90;;;;;;688339;28;795;-79
2022/02/03 02:37:56;;;;;;;;;;;20.90;40.30;;;;;;680533;29;606;-81
2022/02/03 02:39:07;;;;;;;;;;;20.90;40.30;;;;;;680336;29;1052;-79
2022/02/03 02:39:47;;;;;;;;;;;20.90;40.30;;;;;;680330;29;827;-79
2022/02/03 02:42:35;;;;;;;;;;;21.00;40.30;;;;;;680374;29;669;-79
2022/02/03 02:43:08;;;;;;;;;;;21.00;40.20;;;;;;680389;29;789;-80
2022/02/03 02:43:32;;;;;;;;;;;21.00;40.20;;;;;;677565;29;1379;-79
2022/02/03 02:44:14;;;;;;;;;;;21.00;40.10;;;;;;677714;29;804;-80
2022/02/03 02:44:49;;;;;;;;;;;21.00;40.20;;;;;;677771;29;907;-80
2022/02/03 02:45:11;;;;;;;;;;;21.10;40.10;;;;;;677885;29;804;-80
2022/02/03 02:45:40;;;;;;;;;;;21.10;40.20;;;;;;680323;29;978;-79
2022/02/03 02:46:19;;;;;;;;;;;21.10;40.10;;;;;;680363;29;871;-80
2022/02/03 02:46:46;;;;;;;;;;;21.10;40.10;;;;;;683059;29;959;-80
2022/02/03 02:47:12;;;;;;;;;;;21.10;40.00;;;;;;683076;29;807;-80
2022/02/03 02:47:32;;;;;;;;;;;21.10;40.10;;;;;;682803;29;1369;-80
2022/02/03 02:48:07;;;;;;;;;;;21.10;40.00;;;;;;682918;29;867;-80
2022/02/03 02:48:31;;;;;;;;;;;21.10;40.00;;;;;;682855;29;1098;-80
2022/02/03 02:48:51;;;;;;;;;;;21.10;40.00;;;;;;682919;29;1423;-80
2022/02/03 02:49:33;;;;;;;;;;;21.10;40.00;;;;;;683056;29;902;-80
2022/02/03 02:50:06;;;;;;;;;;;21.10;40.00;;;;;;682898;29;1344;-80
2022/02/03 02:50:40;;;;;;;;;;;21.10;40.00;;;;;;683003;29;776;-80
2022/02/03 02:51:09;;;;;;;;;;;21.10;40.00;;;;;;682976;29;862;-80
2022/02/03 02:51:36;;;;;;;;;;;21.10;40.00;;;;;;682901;29;1331;-79
2022/02/03 02:52:05;;;;;;;;;;;21.10;39.90;;;;;;680320;29;998;-80
2022/02/03 02:52:34;;;;;;;;;;;21.10;39.90;;;;;;680323;29;889;-80
2022/02/03 02:54:09;;;;;;;;;;;21.10;39.90;;;;;;684384;28;1146;-81
2022/02/03 02:56:00;;;;;;;;;;;21.10;39.90;;;;;;691110;28;653;-79
2022/02/03 03:03:10;;;;;;;;;;;21.20;39.80;;;;;;693785;28;703;-74
2022/02/03 03:03:46;;;;;;;;;;;21.20;39.90;;;;;;693484;28;1555;-79
2022/02/03 03:29:08;;;;;;;;;;;20.90;45.10;;;;;;691035;28;1009;-79
2022/02/03 03:31:23;;;;;;;;;;;20.90;45.00;;;;;;691019;28;1343;-79
2022/02/03 03:34:05;;;;;;;;;;;20.90;44.10;;;;;;688410;28;949;-78
2022/02/03 03:36:01;;;;;;;;;;;20.90;43.50;;;;;;694421;28;695;-79
2022/02/03 03:36:23;;;;;;;;;;;20.90;43.30;;;;;;691511;28;1195;-79
2022/02/03 03:36:45;;;;;;;;;;;20.90;43.30;;;;;;690555;28;1231;-76
2022/02/03 03:37:09;;;;;;;;;;;20.90;43.20;;;;;;690434;28;921;-77
2022/02/03 03:37:44;;;;;;;;;;;20.90;43.10;;;;;;690801;28;1346;-78
2022/02/03 03:38:07;;;;;;;;;;;20.90;43.10;;;;;;690232;28;911;-77
2022/02/03 03:38:31;;;;;;;;;;;20.90;42.90;;;;;;694305;28;917;-79
2022/02/03 03:38:53;;;;;;;;;;;20.90;42.90;;;;;;694248;28;1355;-77
2022/02/03 03:39:15;;;;;;;;;;;20.80;42.80;;;;;;694463;28;1135;-78
2022/02/03 03:39:44;;;;;;;;;;;20.90;42.70;;;;;;694562;28;1108;-78
2022/02/03 03:40:05;;;;;;;;;;;20.80;42.70;;;;;;694358;28;1240;-79
2022/02/03 03:40:31;;;;;;;;;;;20.90;42.50;;;;;;694405;28;987;-79
2022/02/03 03:40:53;;;;;;;;;;;20.80;42.50;;;;;;694343;28;799;-78
2022/02/03 03:41:17;;;;;;;;;;;20.80;42.50;;;;;;694429;28;1032;-79
2022/02/03 03:41:39;;;;;;;;;;;20.90;42.50;;;;;;694409;28;1072;-77
2022/02/03 03:42:01;;;;;;;;;;;20.90;42.50;;;;;;694183;28;1072;-77
2022/02/03 03:42:25;;;;;;;;;;;20.90;43.60;;;;;;694011;28;1009;-78
2022/02/03 03:42:51;;;;;;;;;;;20.90;42.50;;;;;;693552;28;1068;-79
2022/02/03 03:43:12;;;;;;;;;;;20.90;42.50;;;;;;693118;28;854;-78
2022/02/03 03:43:33;;;;;;;;;;;20.80;42.50;;;;;;693498;28;1071;-80
2022/02/03 03:43:56;;;;;;;;;;;20.80;42.40;;;;;;694325;28;1068;-78
2022/02/03 03:44:18;;;;;;;;;;;20.90;42.50;;;;;;693354;28;1028;-78
2022/02/03 03:44:40;;;;;;;;;;;20.90;42.30;;;;;;693399;28;1008;-78
2022/02/03 03:45:04;;;;;;;;;;;20.80;42.00;;;;;;693390;28;1029;-79
2022/02/03 03:45:26;;;;;;;;;;;20.90;42.20;;;;;;693210;28;1287;-79
2022/02/03 03:45:50;;;;;;;;;;;20.80;42.00;;;;;;693673;28;1075;-78
2022/02/03 03:46:11;;;;;;;;;;;20.90;41.90;;;;;;692354;28;1004;-78
2022/02/03 03:46:33;;;;;;;;;;;20.90;42.00;;;;;;692939;28;870;-76
2022/02/03 03:46:57;;;;;;;;;;;20.80;42.10;;;;;;694064;28;842;-77
2022/02/03 03:47:20;;;;;;;;;;;20.80;42.00;;;;;;694107;28;1071;-80
2022/02/03 03:47:45;;;;;;;;;;;20.90;41.90;;;;;;693281;28;1012;-77
2022/02/03 03:48:06;;;;;;;;;;;20.80;42.00;;;;;;692464;28;1302;-78
2022/02/03 03:48:34;;;;;;;;;;;20.80;41.90;;;;;;693906;28;1107;-79
2022/02/03 03:48:55;;;;;;;;;;;20.90;42.00;;;;;;689573;28;1358;-77
2022/02/03 03:49:37;;;;;;;;;;;20.80;41.80;;;;;;689826;28;894;-76
2022/02/03 03:50:11;;;;;;;;;;;20.80;41.80;;;;;;689898;28;851;-76
2022/02/03 03:50:35;;;;;;;;;;;20.80;41.70;;;;;;691217;28;827;-78
2022/02/03 03:51:00;;;;;;;;;;;20.80;41.70;;;;;;693447;28;921;-80
2022/02/03 03:51:26;;;;;;;;;;;20.80;41.90;;;;;;689507;28;823;-79
2022/02/03 03:51:56;;;;;;;;;;;20.80;41.90;;;;;;690467;28;979;-76
2022/02/03 03:52:24;;;;;;;;;;;20.80;41.80;;;;;;689002;28;1427;-77
2022/02/03 03:53:00;;;;;;;;;;;20.80;41.80;;;;;;690110;28;1883;-77
2022/02/03 03:53:37;;;;;;;;;;;20.80;41.80;;;;;;686955;28;943;-77
2022/02/03 03:54:06;;;;;;;;;;;20.80;41.60;;;;;;686141;28;886;-76
2022/02/03 03:54:45;;;;;;;;;;;20.80;41.50;;;;;;685989;28;1054;-78
2022/02/03 03:55:27;;;;;;;;;;;20.80;41.40;;;;;;686670;28;1365;-78
2022/02/03 03:56:03;;;;;;;;;;;20.80;41.60;;;;;;686426;28;870;-78
2022/02/03 03:56:35;;;;;;;;;;;20.80;41.40;;;;;;686292;28;811;-78
2022/02/03 03:57:11;;;;;;;;;;;20.80;41.40;;;;;;686346;28;925;-77
2022/02/03 03:58:56;;;;;;;;;;;20.80;41.40;;;;;;686102;28;664;-79
2022/02/03 04:32:24;;;;;;;;;;;20.70;41.40;;;;;;683336;29;670;-79
2022/02/03 04:34:31;;;;;;;;;;;20.70;41.30;;;;;;683453;29;704;-79
2022/02/03 04:37:25;;;;;;;;;;;20.70;41.30;;;;;;680757;29;839;-79
2022/02/03 04:38:14;;;;;;;;;;;20.70;41.40;;;;;;680540;29;1201;-80
2022/02/03 04:40:53;;;;;;;;;;;20.70;41.30;;;;;;680660;29;646;-79
2022/02/03 04:43:52;;;;;;;;;;;20.70;41.30;;;;;;685914;28;1099;-80
2022/02/03 04:53:30;;;;;;;;;;;20.70;41.50;;;;;;680536;29;1364;-80
2022/02/03 04:55:27;;;;;;;;;;;20.80;41.50;;;;;;680511;29;1469;-79
2022/02/03 04:55:55;;;;;;;;;;;20.80;41.40;;;;;;680307;29;1553;-79
2022/02/03 04:59:42;;;;;;;;;;;20.80;41.30;;;;;;683244;28;1170;-77
2022/02/03 05:01:15;;;;;;;;;;;20.90;41.30;;;;;;680478;29;994;-79
2022/02/03 05:02:20;;;;;;;;;;;20.90;41.20;;;;;;680027;29;1667;-78
2022/02/03 05:06:01;;;;;;;;;;;20.90;41.00;;;;;;680539;29;1234;-78
2022/02/03 05:06:43;;;;;;;;;;;20.90;41.10;;;;;;680379;29;1525;-78
2022/02/03 05:08:03;;;;;;;;;;;20.90;41.00;;;;;;680582;29;1093;-79
2022/02/03 05:08:44;;;;;;;;;;;20.90;40.90;;;;;;680396;29;1240;-79
2022/02/03 05:09:26;;;;;;;;;;;20.90;40.90;;;;;;678048;29;840;-78
2022/02/03 05:12:53;;;;;;;;;;;20.90;40.90;;;;;;680419;29;1378;-79
2022/02/03 05:16:36;;;;;;;;;;;21.00;40.80;;;;;;677859;29;1080;-77
2022/02/03 05:19:06;;;;;;;;;;;20.90;41.40;;;;;;678083;29;665;-80
2022/02/03 05:19:46;;;;;;;;;;;20.90;41.30;;;;;;676858;29;1560;-79
2022/02/03 05:20:30;;;;;;;;;;;20.90;41.30;;;;;;677654;29;1148;-78
2022/02/03 05:21:38;;;;;;;;;;;20.90;41.40;;;;;;677773;29;1373;-79
2022/02/03 05:26:11;;;;;;;;;;;20.90;41.30;;;;;;677881;29;599;-79
2022/02/03 05:32:24;;;;;;;;;;;20.80;41.30;;;;;;672806;29;606;-78
2022/02/03 05:33:24;;;;;;;;;;;20.80;41.30;;;;;;672705;29;919;-79
2022/02/03 05:35:27;;;;;;;;;;;20.80;41.30;;;;;;672618;29;1472;-77
2022/02/03 05:44:22;;;;;;;;;;;20.80;41.50;;;;;;672599;29;1415;-78
2022/02/03 05:52:15;;;;;;;;;;;20.80;41.60;;;;;;669384;29;1226;-78
2022/02/03 05:54:29;;;;;;;;;;;20.70;41.50;;;;;;668354;29;1279;-78
2022/02/03 06:02:07;;;;;;;;;;;20.70;42.70;;;;;;680544;29;630;-80
2022/02/03 06:07:04;;;;;;;;;;;20.80;43.10;;;;;;680584;29;851;-81
2022/02/03 06:08:35;;;;;;;;;;;20.80;43.30;;;;;;680374;29;886;-80
2022/02/03 06:11:53;;;;;;;;;;;20.80;43.20;;;;;;680488;29;614;-81
2022/02/03 06:13:04;;;;;;;;;;;20.80;43.10;;;;;;680020;29;1976;-81
2022/02/03 06:14:13;;;;;;;;;;;20.80;43.00;;;;;;680034;29;1090;-80
2022/02/03 06:14:20;;;;;;;;;;;20.90;43.00;;;;;;682824;29;1342;-80
2022/02/03 06:14:55;;;;;;;;;;;20.80;42.90;;;;;;680501;29;1044;-82
2022/02/03 06:16:47;;;;;;;;;;;20.80;42.70;;;;;;682902;29;1036;-82
2022/02/03 06:21:50;;;;;;;;;;;20.90;42.50;;;;;;680463;29;590;-79
2022/02/03 06:22:25;;;;;;;;;;;20.90;42.50;;;;;;680359;29;1079;-81
2022/02/03 06:22:54;;;;;;;;;;;20.90;42.50;;;;;;680296;29;906;-80
2022/02/03 06:23:25;;;;;;;;;;;20.90;42.50;;;;;;677648;29;1366;-81
2022/02/03 06:24:19;;;;;;;;;;;20.90;42.50;;;;;;677828;29;717;-81
2022/02/03 06:27:37;;;;;;;;;;;20.90;42.30;;;;;;685663;28;614;-82
2022/02/03 06:27:59;;;;;;;;;;;20.90;42.30;;;;;;685562;28;906;-80
2022/02/03 06:28:19;;;;;;;;;;;20.90;42.30;;;;;;685627;28;882;-80
2022/02/03 06:28:47;;;;;;;;;;;20.90;42.30;;;;;;685680;28;934;-81
2022/02/03 06:29:09;;;;;;;;;;;20.90;42.30;;;;;;685359;28;815;-81
2022/02/03 06:29:34;;;;;;;;;;;20.90;42.50;;;;;;685794;28;824;-81
2022/02/03 06:29:58;;;;;;;;;;;20.90;42.50;;;;;;685580;28;1350;-79
2022/02/03 06:30:20;;;;;;;;;;;20.90;42.50;;;;;;685708;28;1168;-79
2022/02/03 06:30:41;;;;;;;;;;;20.90;42.50;;;;;;683936;28;1207;-80
2022/02/03 06:31:01;;;;;;;;;;;20.90;43.30;;;;;;683311;28;1449;-80
2022/02/03 06:31:22;;;;;;;;;;;21.00;42.60;;;;;;681398;29;1372;-82
2022/02/03 06:31:46;;;;;;;;;;;20.90;42.60;;;;;;680204;29;1236;-81
2022/02/03 06:32:07;;;;;;;;;;;21.00;42.70;;;;;;680251;29;942;-82
2022/02/03 06:32:28;;;;;;;;;;;21.00;42.80;;;;;;681105;29;1171;-81
2022/02/03 06:32:48;;;;;;;;;;;21.00;43.10;;;;;;683817;28;894;-81
2022/02/03 06:33:09;;;;;;;;;;;21.00;43.40;;;;;;685677;28;1963;-80
2022/02/03 06:33:30;;;;;;;;;;;21.00;44.00;;;;;;686482;28;1149;-80
2022/02/03 06:33:50;;;;;;;;;;;21.00;43.90;;;;;;687042;28;1541;-79
2022/02/03 06:34:11;;;;;;;;;;;21.10;45.10;;;;;;685461;28;1330;-81
2022/02/03 06:34:32;;;;;;;;;;;21.10;44.10;;;;;;686869;28;1371;-82
2022/02/03 06:34:53;;;;;;;;;;;21.10;43.90;;;;;;687008;28;1407;-79
2022/02/03 06:35:14;;;;;;;;;;;21.10;43.80;;;;;;686906;28;1191;-82
2022/02/03 06:35:34;;;;;;;;;;;21.10;43.60;;;;;;686701;28;1427;-82
2022/02/03 06:35:55;;;;;;;;;;;21.10;43.60;;;;;;686245;28;1502;-81
2022/02/03 06:36:15;;;;;;;;;;;21.10;43.30;;;;;;686257;28;1383;-81
2022/02/03 06:36:37;;;;;;;;;;;21.10;43.10;;;;;;687648;28;1226;-81
2022/02/03 06:36:57;;;;;;;;;;;21.10;43.10;;;;;;684639;28;1297;-82
2022/02/03 06:37:21;;;;;;;;;;;21.10;43.00;;;;;;682876;28;1216;-81
2022/02/03 06:37:44;;;;;;;;;;;21.10;42.90;;;;;;684874;28;1384;-82
2022/02/03 06:38:04;;;;;;;;;;;21.10;42.70;;;;;;684711;28;1472;-81
2022/02/03 06:38:25;;;;;;;;;;;21.10;42.60;;;;;;684680;28;1474;-81
2022/02/03 06:38:45;;;;;;;;;;;21.20;42.70;;;;;;685286;28;1305;-79
2022/02/03 06:39:13;;;;;;;;;;;21.10;42.60;;;;;;686957;28;1309;-82
2022/02/03 06:39:33;;;;;;;;;;;21.10;42.60;;;;;;685912;28;1573;-80
2022/02/03 06:39:54;;;;;;;;;;;21.20;42.60;;;;;;685276;28;1455;-81
2022/02/03 06:40:15;;;;;;;;;;;21.10;42.50;;;;;;683220;28;1494;-79
2022/02/03 06:40:35;;;;;;;;;;;21.10;42.50;;;;;;685445;28;1420;-82
2022/02/03 06:40:56;;;;;;;;;;;21.20;42.40;;;;;;683040;28;1467;-80
2022/02/03 06:41:16;;;;;;;;;;;21.20;42.30;;;;;;684821;28;1484;-81
2022/02/03 06:41:37;;;;;;;;;;;21.20;42.30;;;;;;683042;28;1504;-82
2022/02/03 06:42:00;;;;;;;;;;;21.20;42.40;;;;;;684366;28;1239;-80
2022/02/03 06:42:21;;;;;;;;;;;21.20;42.30;;;;;;685858;28;1340;-81
2022/02/03 06:42:43;;;;;;;;;;;21.20;42.30;;;;;;682804;28;1228;-82
2022/02/03 06:43:03;;;;;;;;;;;21.20;42.30;;;;;;682869;28;1283;-81
2022/02/03 06:43:24;;;;;;;;;;;21.20;42.20;;;;;;683934;28;1348;-81
2022/02/03 06:43:45;;;;;;;;;;;21.20;42.20;;;;;;683930;28;1379;-80
2022/02/03 06:44:06;;;;;;;;;;;21.20;42.20;;;;;;683702;28;1380;-81
2022/02/03 06:44:37;;;;;;;;;;;21.20;42.20;;;;;;684015;28;1112;-80
2022/02/03 06:45:10;;;;;;;;;;;21.20;42.20;;;;;;687630;28;1232;-82
2022/02/03 06:45:59;;;;;;;;;;;21.20;42.20;;;;;;685919;28;1317;-80
2022/02/03 06:46:21;;;;;;;;;;;21.20;42.20;;;;;;685188;28;1264;-82
2022/02/03 06:46:46;;;;;;;;;;;21.20;42.20;;;;;;683424;28;1380;-82
2022/02/03 06:47:33;;;;;;;;;;;21.20;42.30;;;;;;684749;28;1334;-80
2022/02/03 06:48:00;;;;;;;;;;;21.20;42.50;;;;;;684047;28;1498;-79
2022/02/03 06:48:21;;;;;;;;;;;21.20;42.40;;;;;;685301;28;1081;-82
2022/02/03 06:48:46;;;;;;;;;;;21.20;42.30;;;;;;685596;28;1338;-80
2022/02/03 06:49:30;;;;;;;;;;;21.20;42.30;;;;;;685185;28;1338;-82
2022/02/03 06:50:06;;;;;;;;;;;21.20;42.20;;;;;;685552;28;937;-80
2022/02/03 06:50:32;;;;;;;;;;;21.20;42.30;;;;;;685091;28;1172;-81
2022/02/03 06:51:01;;;;;;;;;;;21.20;42.20;;;;;;685510;28;1283;-81
2022/02/03 06:51:31;;;;;;;;;;;21.20;42.20;;;;;;685228;28;1349;-81
2022/02/03 06:51:59;;;;;;;;;;;21.20;42.20;;;;;;685522;28;1327;-82
2022/02/03 06:52:30;;;;;;;;;;;21.20;42.40;;;;;;685468;28;1278;-81
2022/02/03 06:52:58;;;;;;;;;;;21.20;42.30;;;;;;681728;29;1460;-81
2022/02/03 06:53:23;;;;;;;;;;;21.20;42.30;;;;;;683000;29;1243;-81
2022/02/03 06:53:48;;;;;;;;;;;21.20;42.20;;;;;;685974;28;1275;-82
2022/02/03 06:54:18;;;;;;;;;;;21.20;42.20;;;;;;688329;28;1301;-81
2022/02/03 06:55:16;;;;;;;;;;;21.20;42.10;;;;;;693035;28;1170;-82
2022/02/03 06:55:53;;;;;;;;;;;21.20;42.20;;;;;;689947;28;945;-83
2022/02/03 06:56:28;;;;;;;;;;;21.20;42.30;;;;;;694104;28;1399;-82
2022/02/03 06:56:55;;;;;;;;;;;21.20;42.20;;;;;;693549;28;1452;-82
2022/02/03 06:57:23;;;;;;;;;;;21.20;42.20;;;;;;693687;28;1412;-82
2022/02/03 06:57:59;;;;;;;;;;;21.20;42.30;;;;;;697299;28;1146;-83
2022/02/03 06:58:25;;;;;;;;;;;21.20;42.30;;;;;;696710;28;1436;-81
2022/02/03 06:58:51;;;;;;;;;;;21.20;42.20;;;;;;699270;28;1301;-84
2022/02/03 06:59:14;;;;;;;;;;;21.20;42.20;;;;;;693594;28;1234;-83
2022/02/03 06:59:47;;;;;;;;;;;21.20;42.20;;;;;;697586;28;1555;-84
2022/02/03 07:00:17;;;;;;;;;;;21.20;42.20;;;;;;699258;28;1412;-83
2022/02/03 07:00:42;;;;;;;;;;;21.20;43.40;;;;;;696440;28;1288;-82